Time;durP1;ratioP1;P1;durP2;ratioP2;P2;SDS_P1;SDS_P2;PMS_P1;PMS_P2;Temp;Humidity;BMP_temperature;BMP_pressure;BME280_temperature;BME280_humidity;BME280_pressure;Samples;Min_cycle;Max_cycle;Signal;HPM_P1;HPM_P2
2020/12/23 00:03:05;;;;;;;66.53;25.57;;;;;;;;;;13075785;22;20220;-60
2020/12/23 00:08:07;;;;;;;56.23;24.70;;;;;;;;;;13068368;22;20208;-60
2020/12/23 00:13:09;;;;;;;76.87;27.00;;;;;;;;;;13073374;22;20209;-60
2020/12/23 00:18:11;;;;;;;71.13;27.10;;;;;;;;;;13094776;22;20180;-60
2020/12/23 00:23:14;;;;;;;81.23;27.17;;;;;;;;;;13070600;22;20192;-60
2020/12/23 00:28:16;;;;;;;92.63;29.50;;;;;;;;;;13072039;22;20173;-59
2020/12/23 00:33:18;;;;;;;78.03;26.07;;;;;;;;;;13073395;22;20215;-60
2020/12/23 00:38:20;;;;;;;78.33;28.53;;;;;;;;;;13068230;22;20711;-60
2020/12/23 00:43:22;;;;;;;85.27;28.40;;;;;;;;;;13074516;22;20176;-60
2020/12/23 00:48:24;;;;;;;84.30;27.80;;;;;;;;;;13073922;22;20169;-60
2020/12/23 00:53:26;;;;;;;68.87;26.97;;;;;;;;;;13072458;22;20443;-60
2020/12/23 00:58:28;;;;;;;66.77;26.27;;;;;;;;;;13070986;22;20263;-58
2020/12/23 01:03:30;;;;;;;114.33;29.10;;;;;;;;;;13073744;22;20534;-60
2020/12/23 01:08:33;;;;;;;60.83;24.07;;;;;;;;;;13073286;22;20201;-59
2020/12/23 01:13:35;;;;;;;65.07;25.13;;;;;;;;;;13078428;22;20212;-59
2020/12/23 01:18:37;;;;;;;69.23;27.37;;;;;;;;;;13077540;22;20231;-59
2020/12/23 01:23:39;;;;;;;67.03;25.43;;;;;;;;;;13077728;22;20181;-60
2020/12/23 01:28:44;;;;;;;144.40;31.00;;;;;;;;;;13078381;22;20195;-59
2020/12/23 01:33:46;;;;;;;98.20;29.50;;;;;;;;;;13081053;22;20588;-60
2020/12/23 01:38:48;;;;;;;69.63;27.17;;;;;;;;;;13079666;22;20177;-60
2020/12/23 01:43:54;;;;;;;103.67;29.27;;;;;;;;;;13076542;22;20168;-60
2020/12/23 01:48:56;;;;;;;128.00;32.03;;;;;;;;;;13081015;22;20181;-59
2020/12/23 01:53:59;;;;;;;78.93;27.87;;;;;;;;;;13073851;22;20215;-60
2020/12/23 01:59:01;;;;;;;103.00;29.07;;;;;;;;;;13078314;22;20181;-60
2020/12/23 02:04:03;;;;;;;81.07;28.43;;;;;;;;;;13074556;22;20321;-59
2020/12/23 02:09:06;;;;;;;80.73;28.20;;;;;;;;;;13075784;22;20583;-59
2020/12/23 02:14:08;;;;;;;83.90;28.50;;;;;;;;;;13074681;22;20209;-58
2020/12/23 02:19:10;;;;;;;136.87;31.10;;;;;;;;;;13077681;22;20173;-59
2020/12/23 02:24:13;;;;;;;208.70;35.23;;;;;;;;;;13076128;22;20231;-59
2020/12/23 02:29:14;;;;;;;89.17;27.87;;;;;;;;;;13076343;22;20180;-60
2020/12/23 02:34:16;;;;;;;156.50;32.67;;;;;;;;;;13072793;22;20205;-60
2020/12/23 02:39:19;;;;;;;90.53;29.80;;;;;;;;;;13077717;22;20256;-60
2020/12/23 02:44:21;;;;;;;165.33;33.13;;;;;;;;;;13075969;22;20517;-60
2020/12/23 02:49:23;;;;;;;109.23;31.47;;;;;;;;;;13080164;22;20173;-60
2020/12/23 02:54:25;;;;;;;124.43;33.57;;;;;;;;;;13072974;22;20200;-60
2020/12/23 02:59:27;;;;;;;266.47;37.27;;;;;;;;;;13076681;22;20173;-59
2020/12/23 03:04:29;;;;;;;122.80;34.00;;;;;;;;;;13072381;22;20192;-60
2020/12/23 03:09:32;;;;;;;192.93;35.43;;;;;;;;;;13072925;22;20209;-60
2020/12/23 03:14:33;;;;;;;132.87;35.57;;;;;;;;;;13073885;22;20300;-60
2020/12/23 03:19:35;;;;;;;479.40;43.30;;;;;;;;;;13077689;22;20176;-60
2020/12/23 03:24:38;;;;;;;413.87;44.00;;;;;;;;;;13072931;22;20867;-60
2020/12/23 03:29:40;;;;;;;252.47;41.77;;;;;;;;;;13075715;22;20184;-60
2020/12/23 03:34:42;;;;;;;144.90;37.13;;;;;;;;;;13073249;22;20204;-60
2020/12/23 03:39:44;;;;;;;171.03;38.00;;;;;;;;;;13075416;22;20517;-60
2020/12/23 03:44:46;;;;;;;228.33;41.50;;;;;;;;;;13074133;22;20231;-60
2020/12/23 03:49:48;;;;;;;163.23;39.20;;;;;;;;;;13076753;22;20176;-61
2020/12/23 03:54:51;;;;;;;161.33;39.30;;;;;;;;;;13072921;22;20200;-60
2020/12/23 03:59:52;;;;;;;158.80;39.30;;;;;;;;;;13076973;22;20213;-60
2020/12/23 04:04:54;;;;;;;164.33;40.90;;;;;;;;;;13074947;22;20200;-59
2020/12/23 04:09:57;;;;;;;288.93;44.73;;;;;;;;;;13073435;22;20228;-59
2020/12/23 04:14:59;;;;;;;250.93;42.13;;;;;;;;;;13076335;22;20484;-60
2020/12/23 04:20:01;;;;;;;191.50;40.03;;;;;;;;;;13074195;22;20188;-60
2020/12/23 04:25:05;;;;;;;227.47;40.63;;;;;;;;;;13076708;22;20183;-59
2020/12/23 04:30:07;;;;;;;272.40;42.10;;;;;;;;;;13074109;22;20256;-60
2020/12/23 04:35:09;;;;;;;149.47;36.13;;;;;;;;;;13074386;22;20209;-60
2020/12/23 04:40:12;;;;;;;133.33;37.00;;;;;;;;;;13073296;22;20173;-60
2020/12/23 04:45:16;;;;;;;156.43;36.50;;;;;;;;;;13074903;22;20195;-57
2020/12/23 04:50:20;;;;;;;273.57;38.27;;;;;;;;;;13071920;22;20183;-60
2020/12/23 04:55:23;;;;;;;146.80;35.30;;;;;;;;;;13073365;22;20306;-60
2020/12/23 05:00:26;;;;;;;109.10;32.63;;;;;;;;;;13072064;22;20542;-60
2020/12/23 05:05:28;;;;;;;124.83;33.80;;;;;;;;;;13072223;22;20197;-60
2020/12/23 05:10:30;;;;;;;117.87;33.10;;;;;;;;;;13070526;22;20212;-60
2020/12/23 05:15:34;;;;;;;115.63;33.10;;;;;;;;;;13074312;22;20576;-60
2020/12/23 05:20:37;;;;;;;152.93;37.33;;;;;;;;;;13072309;22;20265;-60
2020/12/23 05:25:39;;;;;;;146.13;35.77;;;;;;;;;;13074713;22;20179;-61
2020/12/23 05:30:42;;;;;;;135.60;35.97;;;;;;;;;;13073012;22;20230;-60
2020/12/23 05:35:44;;;;;;;153.80;37.30;;;;;;;;;;13073109;22;20209;-60
2020/12/23 05:40:47;;;;;;;136.73;34.60;;;;;;;;;;13073929;22;20405;-60
2020/12/23 05:45:52;;;;;;;131.83;34.10;;;;;;;;;;13071865;22;20173;-60
2020/12/23 05:50:54;;;;;;;126.13;33.97;;;;;;;;;;13096530;22;20176;-60
2020/12/23 05:55:56;;;;;;;100.13;31.63;;;;;;;;;;13075642;22;20208;-60
2020/12/23 06:00:59;;;;;;;89.73;30.33;;;;;;;;;;13078038;22;20237;-60
2020/12/23 06:06:02;;;;;;;99.13;30.93;;;;;;;;;;13072772;22;20197;-58
2020/12/23 06:11:23;;;;;;;86.23;30.77;;;;;;;;;;13081660;22;20212;-60
2020/12/23 06:16:29;;;;;;;106.43;30.80;;;;;;;;;;13096171;22;20196;-60
2020/12/23 06:21:31;;;;;;;94.97;29.73;;;;;;;;;;13097795;22;20169;-60
2020/12/23 06:26:34;;;;;;;94.07;28.73;;;;;;;;;;13077080;22;20181;-60
2020/12/23 06:31:40;;;;;;;66.53;26.27;;;;;;;;;;13074433;22;20173;-60
2020/12/23 06:36:42;;;;;;;65.90;24.03;;;;;;;;;;13072076;22;20209;-60
2020/12/23 06:41:45;;;;;;;44.07;20.23;;;;;;;;;;13076136;22;20226;-60
2020/12/23 06:47:06;;;;;;;56.23;21.10;;;;;;;;;;13074244;22;20169;-60
2020/12/23 06:52:26;;;;;;;40.87;18.50;;;;;;;;;;13075152;22;20208;-60
2020/12/23 06:57:49;;;;;;;43.57;19.30;;;;;;;;;;13072622;22;20525;-60
2020/12/23 07:02:52;;;;;;;61.10;21.33;;;;;;;;;;13074308;22;20251;-60
2020/12/23 07:07:55;;;;;;;47.33;20.20;;;;;;;;;;13072804;22;21022;-60
2020/12/23 07:12:58;;;;;;;46.90;20.13;;;;;;;;;;13093564;22;20200;-61
2020/12/23 07:18:03;;;;;;;59.97;22.07;;;;;;;;;;13074865;22;20680;-59
2020/12/23 07:23:05;;;;;;;60.97;21.33;;;;;;;;;;13071237;22;20177;-60
2020/12/23 07:28:08;;;;;;;54.77;20.57;;;;;;;;;;13074863;22;20169;-60
2020/12/23 07:33:16;;;;;;;49.60;19.83;;;;;;;;;;13072179;22;20542;-60
2020/12/23 07:38:19;;;;;;;43.93;19.47;;;;;;;;;;13092535;22;20172;-60
2020/12/23 07:43:21;;;;;;;44.37;18.77;;;;;;;;;;13075679;22;20173;-60
2020/12/23 07:48:25;;;;;;;46.63;18.33;;;;;;;;;;13075423;22;20612;-60
2020/12/23 07:53:28;;;;;;;31.97;16.80;;;;;;;;;;13060448;22;20205;-60
2020/12/23 07:58:31;;;;;;;31.63;15.50;;;;;;;;;;13072334;22;20181;-60
2020/12/23 08:03:34;;;;;;;28.43;14.53;;;;;;;;;;13070436;22;20193;-59
2020/12/23 08:08:36;;;;;;;31.93;14.33;;;;;;;;;;13071032;22;20201;-60
2020/12/23 08:13:38;;;;;;;29.10;13.73;;;;;;;;;;13068116;22;20675;-59
2020/12/23 08:18:42;;;;;;;32.23;13.43;;;;;;;;;;13076788;22;20177;-60
2020/12/23 08:23:46;;;;;;;18.47;10.83;;;;;;;;;;13075096;22;20173;-60
2020/12/23 08:28:48;;;;;;;19.33;10.17;;;;;;;;;;12942825;22;55148;-60
2020/12/23 08:33:50;;;;;;;12.63;7.80;;;;;;;;;;12948545;22;20206;-60
2020/12/23 08:38:52;;;;;;;16.17;8.77;;;;;;;;;;12945316;22;20174;-60
2020/12/23 08:43:54;;;;;;;24.87;12.03;;;;;;;;;;12947476;22;20181;-60
2020/12/23 08:49:00;;;;;;;22.53;13.07;;;;;;;;;;12947069;22;20755;-62
2020/12/23 08:54:11;;;;;;;27.10;14.93;;;;;;;;;;12965638;22;20202;-60
2020/12/23 08:59:13;;;;;;;22.83;14.90;;;;;;;;;;12961207;22;21053;-60
2020/12/23 09:04:29;;;;;;;26.87;15.97;;;;;;;;;;12953637;22;20220;-61
2020/12/23 09:09:31;;;;;;;28.50;16.90;;;;;;;;;;12945505;22;20618;-60
2020/12/23 09:14:34;;;;;;;33.33;17.87;;;;;;;;;;12944329;22;20206;-58
2020/12/23 09:20:02;;;;;;;24.17;14.90;;;;;;;;;;12944513;22;20175;-60
2020/12/23 09:25:12;;;;;;;30.50;14.90;;;;;;;;;;12895478;22;20170;-60
2020/12/23 09:30:14;;;;;;;25.60;12.40;;;;;;;;;;12946463;22;20182;-59
2020/12/23 09:35:16;;;;;;;21.33;11.77;;;;;;;;;;12947749;22;20644;-59
2020/12/23 09:40:19;;;;;;;24.97;12.30;;;;;;;;;;12945696;22;20175;-59
2020/12/23 09:45:21;;;;;;;21.17;12.50;;;;;;;;;;12948128;22;20183;-59
2020/12/23 09:50:22;;;;;;;20.83;11.30;;;;;;;;;;12947483;22;20578;-60
2020/12/23 09:55:25;;;;;;;23.33;11.73;;;;;;;;;;12946136;22;20735;-60
2020/12/23 10:00:27;;;;;;;21.53;10.93;;;;;;;;;;12946947;22;20197;-60
2020/12/23 10:05:30;;;;;;;18.50;11.30;;;;;;;;;;12936483;22;20204;-60
2020/12/23 10:10:33;;;;;;;24.03;12.37;;;;;;;;;;12945290;22;20209;-60
2020/12/23 10:15:35;;;;;;;18.80;10.73;;;;;;;;;;12947126;22;20245;-60
2020/12/23 10:20:36;;;;;;;20.47;10.63;;;;;;;;;;12944510;22;20178;-60
2020/12/23 10:25:39;;;;;;;19.67;11.60;;;;;;;;;;12947462;22;20806;-60
2020/12/23 10:30:41;;;;;;;24.97;12.70;;;;;;;;;;12943941;22;20197;-59
2020/12/23 10:35:44;;;;;;;20.60;12.27;;;;;;;;;;12945615;22;20198;-60
2020/12/23 10:40:46;;;;;;;22.20;12.47;;;;;;;;;;12949168;22;20175;-60
2020/12/23 10:45:48;;;;;;;25.43;14.03;;;;;;;;;;12950398;22;20257;-60
2020/12/23 10:50:50;;;;;;;23.93;13.77;;;;;;;;;;12951007;22;20182;-60
2020/12/23 10:55:53;;;;;;;29.70;14.60;;;;;;;;;;12948904;22;20208;-60
2020/12/23 11:00:55;;;;;;;32.33;14.50;;;;;;;;;;12953423;22;20501;-60
2020/12/23 11:05:56;;;;;;;23.93;12.47;;;;;;;;;;12946799;22;20198;-59
2020/12/23 11:10:59;;;;;;;26.20;12.60;;;;;;;;;;12951377;22;20205;-60
2020/12/23 11:16:01;;;;;;;21.60;11.30;;;;;;;;;;12948210;22;20206;-59
2020/12/23 11:21:03;;;;;;;16.43;8.87;;;;;;;;;;12951317;22;20181;-60
2020/12/23 11:26:13;;;;;;;18.40;8.77;;;;;;;;;;12949663;22;20174;-60
2020/12/23 11:31:27;;;;;;;16.13;8.23;;;;;;;;;;12972220;22;20190;-60
2020/12/23 11:36:28;;;;;;;18.00;8.20;;;;;;;;;;12949149;22;20213;-60
2020/12/23 11:41:33;;;;;;;17.67;7.17;;;;;;;;;;12951395;22;20178;-59
2020/12/23 11:46:35;;;;;;;17.07;6.27;;;;;;;;;;12948479;22;20201;-60
2020/12/23 11:51:37;;;;;;;13.90;6.20;;;;;;;;;;12948576;22;20182;-60
2020/12/23 11:56:39;;;;;;;55.37;7.57;;;;;;;;;;12947639;22;20684;-60
2020/12/23 12:01:41;;;;;;;14.40;5.60;;;;;;;;;;12949564;22;20189;-60
2020/12/23 12:06:43;;;;;;;15.73;5.83;;;;;;;;;;12946296;22;20633;-60
2020/12/23 12:11:46;;;;;;;11.07;4.70;;;;;;;;;;12951167;22;20204;-60
2020/12/23 12:16:48;;;;;;;7.83;4.40;;;;;;;;;;12947068;22;20546;-60
2020/12/23 12:21:49;;;;;;;14.27;5.43;;;;;;;;;;12950504;22;20199;-60
2020/12/23 12:26:52;;;;;;;15.37;6.77;;;;;;;;;;12946971;22;20183;-60
2020/12/23 12:31:54;;;;;;;11.23;7.70;;;;;;;;;;12951092;22;20181;-60
2020/12/23 12:36:56;;;;;;;17.80;10.33;;;;;;;;;;12947246;22;20202;-60
2020/12/23 12:42:01;;;;;;;17.63;10.83;;;;;;;;;;12951181;22;20174;-60
2020/12/23 12:47:03;;;;;;;19.00;11.70;;;;;;;;;;12947075;22;20513;-59
2020/12/23 12:52:05;;;;;;;35.80;13.57;;;;;;;;;;12949338;22;20189;-60
2020/12/23 12:57:08;;;;;;;17.17;11.03;;;;;;;;;;12963118;22;20252;-59
2020/12/23 13:02:11;;;;;;;16.47;8.87;;;;;;;;;;12951555;22;20205;-60
2020/12/23 13:07:13;;;;;;;19.57;8.80;;;;;;;;;;12944586;22;20170;-60
2020/12/23 13:12:15;;;;;;;16.90;8.67;;;;;;;;;;12938833;22;20210;-60
2020/12/23 13:17:17;;;;;;;14.67;8.97;;;;;;;;;;12946517;22;20552;-60
2020/12/23 13:22:19;;;;;;;12.93;8.93;;;;;;;;;;12948650;22;20174;-60
2020/12/23 13:27:22;;;;;;;13.47;8.67;;;;;;;;;;12947061;22;20190;-60
2020/12/23 13:32:24;;;;;;;17.90;9.97;;;;;;;;;;12948363;22;20656;-60
2020/12/23 13:37:26;;;;;;;17.33;10.50;;;;;;;;;;12946053;22;20522;-61
2020/12/23 13:42:29;;;;;;;17.50;10.53;;;;;;;;;;12947532;22;20175;-60
2020/12/23 13:47:31;;;;;;;14.90;10.07;;;;;;;;;;12950759;22;20282;-61
2020/12/23 13:52:33;;;;;;;12.53;9.93;;;;;;;;;;12948940;22;20186;-61
2020/12/23 13:57:36;;;;;;;13.83;9.73;;;;;;;;;;12946108;22;20207;-60
2020/12/23 14:02:37;;;;;;;19.63;11.50;;;;;;;;;;12944878;22;20194;-60
2020/12/23 14:07:39;;;;;;;18.40;10.97;;;;;;;;;;12946813;22;20508;-60
2020/12/23 14:12:42;;;;;;;15.50;11.60;;;;;;;;;;12943695;22;20991;-61
2020/12/23 14:17:44;;;;;;;15.70;11.30;;;;;;;;;;12947728;22;20729;-60
2020/12/23 14:22:46;;;;;;;17.23;10.50;;;;;;;;;;12946266;22;20755;-60
2020/12/23 14:27:48;;;;;;;17.07;10.63;;;;;;;;;;12950558;22;20174;-61
2020/12/23 14:32:50;;;;;;;16.10;10.23;;;;;;;;;;12950254;22;20656;-61
2020/12/23 14:37:52;;;;;;;15.40;10.07;;;;;;;;;;12950161;22;20210;-60
2020/12/23 14:42:55;;;;;;;13.50;10.77;;;;;;;;;;12950473;22;20217;-60
2020/12/23 14:47:57;;;;;;;13.87;10.77;;;;;;;;;;12951923;22;20175;-61
2020/12/23 14:52:59;;;;;;;15.37;11.53;;;;;;;;;;12947697;22;20517;-62
2020/12/23 14:58:02;;;;;;;15.93;10.50;;;;;;;;;;12949680;22;20752;-60
2020/12/23 15:03:04;;;;;;;14.53;10.40;;;;;;;;;;12951559;22;20202;-61
2020/12/23 15:08:07;;;;;;;14.37;10.17;;;;;;;;;;12950239;22;20237;-60
2020/12/23 15:13:10;;;;;;;15.57;9.80;;;;;;;;;;12948678;22;20600;-60
2020/12/23 15:18:12;;;;;;;23.37;11.80;;;;;;;;;;12938940;22;20182;-60
2020/12/23 15:23:13;;;;;;;19.33;10.47;;;;;;;;;;12947420;22;20241;-60
2020/12/23 15:28:16;;;;;;;16.50;9.87;;;;;;;;;;12951469;22;20185;-60
2020/12/23 15:33:18;;;;;;;16.10;8.67;;;;;;;;;;12948136;22;20788;-60
2020/12/23 15:38:20;;;;;;;14.20;8.63;;;;;;;;;;12950069;22;20182;-60
2020/12/23 15:43:30;;;;;;;9.63;7.03;;;;;;;;;;12947335;22;20166;-60
2020/12/23 15:48:32;;;;;;;10.90;7.07;;;;;;;;;;12950516;22;20182;-60
2020/12/23 15:53:34;;;;;;;11.47;6.83;;;;;;;;;;12945801;22;20579;-61
2020/12/23 15:58:37;;;;;;;13.53;7.33;;;;;;;;;;12948550;22;20977;-60
2020/12/23 16:03:39;;;;;;;10.13;7.23;;;;;;;;;;12941727;22;20299;-61
2020/12/23 16:08:41;;;;;;;11.33;7.77;;;;;;;;;;12943389;22;20245;-60
2020/12/23 16:13:43;;;;;;;12.37;8.13;;;;;;;;;;12938468;22;20702;-60
2020/12/23 16:18:45;;;;;;;12.93;8.80;;;;;;;;;;12944632;22;20178;-60
2020/12/23 16:23:47;;;;;;;12.33;9.00;;;;;;;;;;12940373;22;20198;-60
2020/12/23 16:28:50;;;;;;;13.83;9.63;;;;;;;;;;12945490;22;20178;-61
2020/12/23 16:33:51;;;;;;;14.93;10.57;;;;;;;;;;12944851;22;20223;-58
2020/12/23 16:38:53;;;;;;;14.40;10.03;;;;;;;;;;12943595;22;20174;-60
2020/12/23 16:43:56;;;;;;;20.00;10.43;;;;;;;;;;12940524;22;20174;-61
2020/12/23 16:48:58;;;;;;;12.83;9.93;;;;;;;;;;12937878;22;20277;-60
2020/12/23 16:54:00;;;;;;;17.80;11.10;;;;;;;;;;12937895;22;20206;-60
2020/12/23 16:59:03;;;;;;;18.00;11.30;;;;;;;;;;12937826;22;20193;-60
2020/12/23 17:04:05;;;;;;;15.97;10.13;;;;;;;;;;12941756;22;20202;-60
2020/12/23 17:09:07;;;;;;;17.93;11.33;;;;;;;;;;12940210;22;20217;-60
2020/12/23 17:14:09;;;;;;;16.33;11.57;;;;;;;;;;12943626;22;20197;-60
2020/12/23 17:19:11;;;;;;;16.50;10.43;;;;;;;;;;12941577;22;20182;-71
2020/12/23 17:24:13;;;;;;;16.83;11.23;;;;;;;;;;12941345;22;20174;-58
2020/12/23 17:29:16;;;;;;;16.80;10.13;;;;;;;;;;12938942;22;20588;-60
2020/12/23 17:34:17;;;;;;;18.27;10.70;;;;;;;;;;12941103;22;20202;-60
2020/12/23 17:39:20;;;;;;;18.17;10.73;;;;;;;;;;12942697;22;20178;-59
2020/12/23 17:44:22;;;;;;;15.53;10.33;;;;;;;;;;12936009;22;20174;-60
2020/12/23 17:49:24;;;;;;;14.43;11.10;;;;;;;;;;12944883;22;20178;-60
2020/12/23 17:54:26;;;;;;;15.90;11.50;;;;;;;;;;12941820;22;20535;-60
2020/12/23 17:59:29;;;;;;;16.83;11.20;;;;;;;;;;12946144;22;20178;-60
2020/12/23 18:04:31;;;;;;;17.80;11.77;;;;;;;;;;12940793;22;20202;-60
2020/12/23 18:09:32;;;;;;;19.43;12.10;;;;;;;;;;12944004;22;20202;-60
2020/12/23 18:14:37;;;;;;;17.47;11.87;;;;;;;;;;12941416;22;20233;-60
2020/12/23 18:19:39;;;;;;;17.13;11.73;;;;;;;;;;12945101;22;20641;-60
2020/12/23 18:24:40;;;;;;;15.80;10.57;;;;;;;;;;12940786;22;20174;-60
2020/12/23 18:29:44;;;;;;;15.37;10.27;;;;;;;;;;12944745;22;20171;-60
2020/12/23 18:34:46;;;;;;;18.97;11.57;;;;;;;;;;12944640;22;20206;-60
2020/12/23 18:39:47;;;;;;;19.50;10.47;;;;;;;;;;12943082;22;20734;-60
2020/12/23 18:44:50;;;;;;;19.50;11.07;;;;;;;;;;12941845;22;20175;-60
2020/12/23 18:49:52;;;;;;;15.30;11.03;;;;;;;;;;12947830;22;20573;-60
2020/12/23 18:54:53;;;;;;;14.80;10.70;;;;;;;;;;12941542;22;20206;-60
2020/12/23 18:59:56;;;;;;;16.30;10.37;;;;;;;;;;12945505;22;20175;-60
2020/12/23 19:04:57;;;;;;;18.93;10.80;;;;;;;;;;12942081;22;20209;-60
2020/12/23 19:10:04;;;;;;;10.13;7.03;;;;;;;;;;12950080;22;20202;-60
2020/12/23 19:15:06;;;;;;;7.10;4.77;;;;;;;;;;12944512;22;20195;-60
2020/12/23 19:20:08;;;;;;;10.07;4.57;;;;;;;;;;12942712;22;20181;-60
2020/12/23 19:25:10;;;;;;;4.87;2.40;;;;;;;;;;12943955;22;20679;-58
2020/12/23 19:30:13;;;;;;;8.63;2.30;;;;;;;;;;12941478;22;20182;-58
2020/12/23 19:35:15;;;;;;;8.47;2.50;;;;;;;;;;12964879;22;20664;-60
2020/12/23 19:40:16;;;;;;;8.57;2.60;;;;;;;;;;12940472;22;20170;-60
2020/12/23 19:45:19;;;;;;;16.47;2.37;;;;;;;;;;12963128;22;20179;-59
2020/12/23 19:50:21;;;;;;;5.70;2.10;;;;;;;;;;12941231;22;20213;-58
2020/12/23 19:55:23;;;;;;;9.97;2.70;;;;;;;;;;12942387;22;20206;-59
2020/12/23 20:00:25;;;;;;;9.70;2.87;;;;;;;;;;12961163;22;20580;-57
2020/12/23 20:05:29;;;;;;;8.50;2.30;;;;;;;;;;12941922;22;20195;-58
2020/12/23 20:10:31;;;;;;;11.20;2.53;;;;;;;;;;12941942;22;20214;-58
2020/12/23 20:15:34;;;;;;;11.10;2.40;;;;;;;;;;12941878;22;20383;-56
2020/12/23 20:20:36;;;;;;;11.70;2.30;;;;;;;;;;12939206;22;20183;-58
2020/12/23 20:25:38;;;;;;;12.33;2.53;;;;;;;;;;12944736;22;20179;-59
2020/12/23 20:30:40;;;;;;;14.23;2.87;;;;;;;;;;12939444;22;20189;-59
2020/12/23 20:35:42;;;;;;;12.80;2.67;;;;;;;;;;12941662;22;20210;-58
2020/12/23 20:40:43;;;;;;;11.60;2.53;;;;;;;;;;12939584;22;20181;-59
2020/12/23 20:45:46;;;;;;;13.57;2.80;;;;;;;;;;12944398;22;20174;-60
2020/12/23 20:50:48;;;;;;;13.30;2.87;;;;;;;;;;12939884;22;20182;-59
2020/12/23 20:55:49;;;;;;;9.63;2.10;;;;;;;;;;12941428;22;20208;-59
2020/12/23 21:00:53;;;;;;;11.10;2.10;;;;;;;;;;12938139;22;20182;-59
2020/12/23 21:05:54;;;;;;;12.20;2.17;;;;;;;;;;12941212;22;20198;-59
2020/12/23 21:10:58;;;;;;;11.73;2.40;;;;;;;;;;12939899;22;20221;-59
2020/12/23 21:16:01;;;;;;;11.73;2.60;;;;;;;;;;12943185;22;20207;-59
2020/12/23 21:21:03;;;;;;;11.50;2.50;;;;;;;;;;12941728;22;20579;-59
2020/12/23 21:26:05;;;;;;;18.13;2.97;;;;;;;;;;12948327;22;20174;-59
2020/12/23 21:31:08;;;;;;;18.33;3.07;;;;;;;;;;12942392;22;20175;-59
2020/12/23 21:36:10;;;;;;;18.33;3.53;;;;;;;;;;12944678;22;20213;-59
2020/12/23 21:41:12;;;;;;;22.67;4.20;;;;;;;;;;12946173;22;20183;-60
2020/12/23 21:46:16;;;;;;;20.00;5.03;;;;;;;;;;12948105;22;20185;-59
2020/12/23 21:51:23;;;;;;;24.70;3.73;;;;;;;;;;12948882;22;20182;-59
2020/12/23 21:56:25;;;;;;;15.60;4.07;;;;;;;;;;12944199;22;20201;-58
2020/12/23 22:01:28;;;;;;;17.40;4.00;;;;;;;;;;12945281;22;20174;-59
2020/12/23 22:06:30;;;;;;;14.37;3.50;;;;;;;;;;12941138;22;20535;-58
2020/12/23 22:11:32;;;;;;;18.87;3.23;;;;;;;;;;12945222;22;20688;-59
2020/12/23 22:16:35;;;;;;;14.27;3.90;;;;;;;;;;12932111;22;20210;-59
2020/12/23 22:21:37;;;;;;;11.93;3.13;;;;;;;;;;12950342;22;20174;-58
2020/12/23 22:26:38;;;;;;;6.50;2.10;;;;;;;;;;12949347;22;20182;-59
2020/12/23 22:31:41;;;;;;;4.50;1.60;;;;;;;;;;12945238;22;20309;-59
2020/12/23 22:36:43;;;;;;;5.90;1.73;;;;;;;;;;12949801;22;20205;-59
2020/12/23 22:41:45;;;;;;;7.30;1.93;;;;;;;;;;12950530;22;20178;-59
2020/12/23 22:46:48;;;;;;;8.33;1.90;;;;;;;;;;12969855;22;20600;-58
2020/12/23 22:51:49;;;;;;;10.50;2.10;;;;;;;;;;12947735;22;20182;-58
2020/12/23 22:56:52;;;;;;;6.77;2.00;;;;;;;;;;12948785;22;21252;-59
2020/12/23 23:01:54;;;;;;;7.60;2.07;;;;;;;;;;12950689;22;20201;-59
2020/12/23 23:06:56;;;;;;;7.10;1.80;;;;;;;;;;12947250;22;20728;-59
2020/12/23 23:11:58;;;;;;;7.03;2.00;;;;;;;;;;12949036;22;20202;-59
2020/12/23 23:17:00;;;;;;;9.87;2.00;;;;;;;;;;12949062;22;20232;-59
2020/12/23 23:22:03;;;;;;;11.07;2.00;;;;;;;;;;12947477;22;20179;-59
2020/12/23 23:27:05;;;;;;;14.23;2.10;;;;;;;;;;12947243;22;20181;-59
2020/12/23 23:32:08;;;;;;;7.03;2.37;;;;;;;;;;12948833;22;20257;-59
2020/12/23 23:37:10;;;;;;;12.73;2.60;;;;;;;;;;12947105;22;20217;-59
2020/12/23 23:42:12;;;;;;;12.60;2.23;;;;;;;;;;12950302;22;20182;-57
2020/12/23 23:47:14;;;;;;;9.10;2.37;;;;;;;;;;12948559;22;20175;-59
2020/12/23 23:52:16;;;;;;;6.90;2.10;;;;;;;;;;12971217;22;20182;-59
2020/12/23 23:57:17;;;;;;;13.03;2.13;;;;;;;;;;12946968;22;20513;-59
